sensor_id;sensor_type;location;lat;lon;timestamp;P1;durP1;ratioP1;P2;durP2;ratioP2
30896;SDS011;64229;52.246;21.054;2022-12-10T00:01:03;119.28;;;42.85;;
30896;SDS011;64229;52.246;21.054;2022-12-10T00:03:32;108.57;;;43.58;;
30896;SDS011;64229;52.246;21.054;2022-12-10T00:06:01;113.30;;;45.75;;
30896;SDS011;64229;52.246;21.054;2022-12-10T00:08:28;113.38;;;44.28;;
30896;SDS011;64229;52.246;21.054;2022-12-10T00:10:53;108.85;;;43.28;;
30896;SDS011;64229;52.246;21.054;2022-12-10T00:13:19;111.35;;;42.05;;
30896;SDS011;64229;52.246;21.054;2022-12-10T00:15:44;125.80;;;45.80;;
30896;SDS011;64229;52.246;21.054;2022-12-10T00:18:09;114.25;;;44.92;;
30896;SDS011;64229;52.246;21.054;2022-12-10T00:20:36;121.00;;;44.97;;
30896;SDS011;64229;52.246;21.054;2022-12-10T00:23:02;106.45;;;43.50;;
30896;SDS011;64229;52.246;21.054;2022-12-10T00:25:27;105.53;;;42.53;;
30896;SDS011;64229;52.246;21.054;2022-12-10T00:27:52;113.07;;;44.40;;
30896;SDS011;64229;52.246;21.054;2022-12-10T00:30:18;112.82;;;45.22;;
30896;SDS011;64229;52.246;21.054;2022-12-10T00:32:43;114.45;;;42.50;;
30896;SDS011;64229;52.246;21.054;2022-12-10T00:35:08;104.60;;;40.90;;
30896;SDS011;64229;52.246;21.054;2022-12-10T00:37:34;101.25;;;41.40;;
30896;SDS011;64229;52.246;21.054;2022-12-10T00:39:59;107.18;;;40.50;;
30896;SDS011;64229;52.246;21.054;2022-12-10T00:42:24;105.63;;;41.40;;
30896;SDS011;64229;52.246;21.054;2022-12-10T00:44:50;109.60;;;43.15;;
30896;SDS011;64229;52.246;21.054;2022-12-10T00:47:15;112.32;;;42.25;;
30896;SDS011;64229;52.246;21.054;2022-12-10T00:49:40;105.53;;;41.22;;
30896;SDS011;64229;52.246;21.054;2022-12-10T00:52:05;108.82;;;40.45;;
30896;SDS011;64229;52.246;21.054;2022-12-10T00:54:31;106.40;;;41.47;;
30896;SDS011;64229;52.246;21.054;2022-12-10T00:56:56;104.43;;;41.60;;
30896;SDS011;64229;52.246;21.054;2022-12-10T00:59:21;98.90;;;39.90;;
30896;SDS011;64229;52.246;21.054;2022-12-10T01:01:47;98.28;;;41.60;;
30896;SDS011;64229;52.246;21.054;2022-12-10T01:04:13;105.45;;;39.83;;
30896;SDS011;64229;52.246;21.054;2022-12-10T01:06:50;98.97;;;40.38;;
30896;SDS011;64229;52.246;21.054;2022-12-10T01:09:18;100.47;;;40.72;;
30896;SDS011;64229;52.246;21.054;2022-12-10T01:11:46;101.88;;;40.17;;
30896;SDS011;64229;52.246;21.054;2022-12-10T01:14:14;113.30;;;42.25;;
30896;SDS011;64229;52.246;21.054;2022-12-10T01:16:42;105.00;;;40.85;;
30896;SDS011;64229;52.246;21.054;2022-12-10T01:19:08;114.97;;;41.80;;
30896;SDS011;64229;52.246;21.054;2022-12-10T01:21:34;105.70;;;41.47;;
30896;SDS011;64229;52.246;21.054;2022-12-10T01:23:59;106.47;;;42.13;;
30896;SDS011;64229;52.246;21.054;2022-12-10T01:26:26;100.05;;;39.78;;
30896;SDS011;64229;52.246;21.054;2022-12-10T01:28:55;102.60;;;38.47;;
30896;SDS011;64229;52.246;21.054;2022-12-10T01:31:31;108.82;;;40.47;;
30896;SDS011;64229;52.246;21.054;2022-12-10T01:33:59;103.18;;;39.50;;
30896;SDS011;64229;52.246;21.054;2022-12-10T01:38:53;105.72;;;39.70;;
30896;SDS011;64229;52.246;21.054;2022-12-10T01:41:20;101.20;;;39.47;;
30896;SDS011;64229;52.246;21.054;2022-12-10T01:46:35;100.20;;;37.60;;
30896;SDS011;64229;52.246;21.054;2022-12-10T01:49:05;103.45;;;37.33;;
30896;SDS011;64229;52.246;21.054;2022-12-10T01:51:34;90.15;;;35.13;;
30896;SDS011;64229;52.246;21.054;2022-12-10T01:54:02;106.82;;;39.25;;
30896;SDS011;64229;52.246;21.054;2022-12-10T01:56:29;92.70;;;37.40;;
30896;SDS011;64229;52.246;21.054;2022-12-10T01:58:56;99.15;;;36.42;;
30896;SDS011;64229;52.246;21.054;2022-12-10T02:06:44;90.47;;;32.70;;
30896;SDS011;64229;52.246;21.054;2022-12-10T02:09:20;86.22;;;33.88;;
30896;SDS011;64229;52.246;21.054;2022-12-10T02:12:05;86.97;;;32.78;;
30896;SDS011;64229;52.246;21.054;2022-12-10T02:14:51;90.18;;;33.47;;
30896;SDS011;64229;52.246;21.054;2022-12-10T02:22:51;83.07;;;32.40;;
30896;SDS011;64229;52.246;21.054;2022-12-10T02:25:23;79.50;;;30.63;;
30896;SDS011;64229;52.246;21.054;2022-12-10T02:28:05;81.63;;;32.33;;
30896;SDS011;64229;52.246;21.054;2022-12-10T02:30:34;80.32;;;32.83;;
30896;SDS011;64229;52.246;21.054;2022-12-10T02:33:01;82.10;;;30.42;;
30896;SDS011;64229;52.246;21.054;2022-12-10T02:35:31;82.43;;;29.40;;
30896;SDS011;64229;52.246;21.054;2022-12-10T02:38:05;86.72;;;30.85;;
30896;SDS011;64229;52.246;21.054;2022-12-10T02:40:37;79.60;;;31.83;;
30896;SDS011;64229;52.246;21.054;2022-12-10T02:43:04;87.20;;;31.70;;
30896;SDS011;64229;52.246;21.054;2022-12-10T02:45:32;72.53;;;30.20;;
30896;SDS011;64229;52.246;21.054;2022-12-10T02:47:59;69.80;;;28.50;;
30896;SDS011;64229;52.246;21.054;2022-12-10T02:50:27;75.85;;;29.10;;
30896;SDS011;64229;52.246;21.054;2022-12-10T02:52:52;69.68;;;26.42;;
30896;SDS011;64229;52.246;21.054;2022-12-10T02:55:18;70.78;;;27.60;;
30896;SDS011;64229;52.246;21.054;2022-12-10T03:00:24;68.20;;;26.52;;
30896;SDS011;64229;52.246;21.054;2022-12-10T03:05:48;58.20;;;23.80;;
30896;SDS011;64229;52.246;21.054;2022-12-10T03:08:41;59.10;;;25.10;;
30896;SDS011;64229;52.246;21.054;2022-12-10T03:16:36;67.53;;;26.08;;
30896;SDS011;64229;52.246;21.054;2022-12-10T03:19:07;74.68;;;28.48;;
30896;SDS011;64229;52.246;21.054;2022-12-10T03:21:39;72.35;;;27.92;;
30896;SDS011;64229;52.246;21.054;2022-12-10T03:24:10;69.63;;;27.50;;
30896;SDS011;64229;52.246;21.054;2022-12-10T03:26:39;78.35;;;28.65;;
30896;SDS011;64229;52.246;21.054;2022-12-10T03:29:07;75.75;;;28.15;;
30896;SDS011;64229;52.246;21.054;2022-12-10T03:31:35;72.68;;;26.77;;
30896;SDS011;64229;52.246;21.054;2022-12-10T03:34:03;68.53;;;26.27;;
30896;SDS011;64229;52.246;21.054;2022-12-10T03:36:30;64.95;;;25.00;;
30896;SDS011;64229;52.246;21.054;2022-12-10T03:38:56;70.63;;;25.83;;
30896;SDS011;64229;52.246;21.054;2022-12-10T03:41:22;66.63;;;24.48;;
30896;SDS011;64229;52.246;21.054;2022-12-10T03:43:54;68.00;;;25.30;;
30896;SDS011;64229;52.246;21.054;2022-12-10T03:46:22;67.72;;;25.80;;
30896;SDS011;64229;52.246;21.054;2022-12-10T03:48:48;70.28;;;26.58;;
30896;SDS011;64229;52.246;21.054;2022-12-10T03:51:14;72.90;;;24.92;;
30896;SDS011;64229;52.246;21.054;2022-12-10T03:53:40;69.97;;;25.17;;
30896;SDS011;64229;52.246;21.054;2022-12-10T03:56:05;70.22;;;28.05;;
30896;SDS011;64229;52.246;21.054;2022-12-10T03:58:30;65.47;;;26.00;;
30896;SDS011;64229;52.246;21.054;2022-12-10T04:00:56;65.18;;;24.98;;
30896;SDS011;64229;52.246;21.054;2022-12-10T04:03:21;65.28;;;25.30;;
30896;SDS011;64229;52.246;21.054;2022-12-10T04:05:46;68.85;;;24.02;;
30896;SDS011;64229;52.246;21.054;2022-12-10T04:08:12;67.97;;;24.70;;
30896;SDS011;64229;52.246;21.054;2022-12-10T04:10:37;64.65;;;24.02;;
30896;SDS011;64229;52.246;21.054;2022-12-10T04:13:03;62.97;;;23.38;;
30896;SDS011;64229;52.246;21.054;2022-12-10T04:15:47;64.95;;;23.48;;
30896;SDS011;64229;52.246;21.054;2022-12-10T04:18:31;60.63;;;22.77;;
30896;SDS011;64229;52.246;21.054;2022-12-10T04:20:57;60.85;;;23.02;;
30896;SDS011;64229;52.246;21.054;2022-12-10T04:23:41;65.55;;;24.02;;
30896;SDS011;64229;52.246;21.054;2022-12-10T04:26:25;55.65;;;22.02;;
30896;SDS011;64229;52.246;21.054;2022-12-10T04:29:09;59.33;;;23.23;;
30896;SDS011;64229;52.246;21.054;2022-12-10T04:31:34;67.25;;;25.15;;
30896;SDS011;64229;52.246;21.054;2022-12-10T04:33:59;59.40;;;22.52;;
30896;SDS011;64229;52.246;21.054;2022-12-10T04:36:25;60.42;;;22.27;;
30896;SDS011;64229;52.246;21.054;2022-12-10T04:38:50;54.40;;;21.27;;
30896;SDS011;64229;52.246;21.054;2022-12-10T04:41:15;57.88;;;21.30;;
30896;SDS011;64229;52.246;21.054;2022-12-10T04:43:41;57.83;;;22.83;;
30896;SDS011;64229;52.246;21.054;2022-12-10T04:46:08;62.42;;;23.00;;
30896;SDS011;64229;52.246;21.054;2022-12-10T04:48:34;61.10;;;22.65;;
30896;SDS011;64229;52.246;21.054;2022-12-10T04:50:59;61.67;;;22.25;;
30896;SDS011;64229;52.246;21.054;2022-12-10T04:53:24;62.47;;;22.23;;
30896;SDS011;64229;52.246;21.054;2022-12-10T04:55:50;70.35;;;24.75;;
30896;SDS011;64229;52.246;21.054;2022-12-10T04:58:15;63.72;;;22.70;;
30896;SDS011;64229;52.246;21.054;2022-12-10T05:00:40;58.38;;;20.48;;
30896;SDS011;64229;52.246;21.054;2022-12-10T05:03:05;60.15;;;21.73;;
30896;SDS011;64229;52.246;21.054;2022-12-10T05:05:32;59.50;;;22.48;;
30896;SDS011;64229;52.246;21.054;2022-12-10T05:07:59;59.58;;;21.02;;
30896;SDS011;64229;52.246;21.054;2022-12-10T05:10:24;56.33;;;21.58;;
30896;SDS011;64229;52.246;21.054;2022-12-10T05:12:50;52.55;;;19.92;;
30896;SDS011;64229;52.246;21.054;2022-12-10T05:15:15;54.63;;;20.10;;
30896;SDS011;64229;52.246;21.054;2022-12-10T05:17:41;58.35;;;19.88;;
30896;SDS011;64229;52.246;21.054;2022-12-10T05:20:06;53.47;;;20.38;;
30896;SDS011;64229;52.246;21.054;2022-12-10T05:22:32;59.83;;;19.25;;
30896;SDS011;64229;52.246;21.054;2022-12-10T05:25:16;55.72;;;19.08;;
30896;SDS011;64229;52.246;21.054;2022-12-10T05:27:42;53.45;;;19.42;;
30896;SDS011;64229;52.246;21.054;2022-12-10T05:30:07;51.47;;;19.60;;
30896;SDS011;64229;52.246;21.054;2022-12-10T05:32:34;54.20;;;18.75;;
30896;SDS011;64229;52.246;21.054;2022-12-10T05:34:59;54.08;;;21.08;;
30896;SDS011;64229;52.246;21.054;2022-12-10T05:37:25;52.85;;;18.67;;
30896;SDS011;64229;52.246;21.054;2022-12-10T05:39:50;54.30;;;18.88;;
30896;SDS011;64229;52.246;21.054;2022-12-10T05:42:15;56.60;;;20.23;;
30896;SDS011;64229;52.246;21.054;2022-12-10T05:44:41;55.35;;;19.48;;
30896;SDS011;64229;52.246;21.054;2022-12-10T05:47:06;57.60;;;19.20;;
30896;SDS011;64229;52.246;21.054;2022-12-10T05:49:31;55.00;;;19.73;;
30896;SDS011;64229;52.246;21.054;2022-12-10T05:51:57;50.17;;;18.17;;
30896;SDS011;64229;52.246;21.054;2022-12-10T05:54:22;53.90;;;19.27;;
30896;SDS011;64229;52.246;21.054;2022-12-10T05:56:47;47.38;;;18.42;;
30896;SDS011;64229;52.246;21.054;2022-12-10T05:59:13;47.22;;;17.38;;
30896;SDS011;64229;52.246;21.054;2022-12-10T06:01:38;47.05;;;18.40;;
30896;SDS011;64229;52.246;21.054;2022-12-10T06:04:04;42.85;;;16.15;;
30896;SDS011;64229;52.246;21.054;2022-12-10T06:06:31;53.75;;;18.60;;
30896;SDS011;64229;52.246;21.054;2022-12-10T06:08:58;40.97;;;16.77;;
30896;SDS011;64229;52.246;21.054;2022-12-10T06:11:24;50.10;;;17.65;;
30896;SDS011;64229;52.246;21.054;2022-12-10T06:13:51;45.60;;;16.80;;
30896;SDS011;64229;52.246;21.054;2022-12-10T06:16:17;46.25;;;17.25;;
30896;SDS011;64229;52.246;21.054;2022-12-10T06:18:42;48.75;;;18.20;;
30896;SDS011;64229;52.246;21.054;2022-12-10T06:21:12;46.15;;;17.42;;
30896;SDS011;64229;52.246;21.054;2022-12-10T06:23:40;47.78;;;18.58;;
30896;SDS011;64229;52.246;21.054;2022-12-10T06:26:07;54.45;;;19.35;;
30896;SDS011;64229;52.246;21.054;2022-12-10T06:28:34;52.63;;;18.85;;
30896;SDS011;64229;52.246;21.054;2022-12-10T06:31:01;57.10;;;19.45;;
30896;SDS011;64229;52.246;21.054;2022-12-10T06:33:26;50.63;;;18.60;;
30896;SDS011;64229;52.246;21.054;2022-12-10T06:35:52;62.03;;;19.45;;
30896;SDS011;64229;52.246;21.054;2022-12-10T06:38:17;57.92;;;18.48;;
30896;SDS011;64229;52.246;21.054;2022-12-10T06:40:44;49.45;;;18.25;;
30896;SDS011;64229;52.246;21.054;2022-12-10T06:43:09;54.33;;;18.77;;
30896;SDS011;64229;52.246;21.054;2022-12-10T06:45:38;59.03;;;20.38;;
30896;SDS011;64229;52.246;21.054;2022-12-10T06:48:04;61.08;;;20.25;;
30896;SDS011;64229;52.246;21.054;2022-12-10T06:50:29;55.03;;;18.98;;
30896;SDS011;64229;52.246;21.054;2022-12-10T06:52:55;56.47;;;18.67;;
30896;SDS011;64229;52.246;21.054;2022-12-10T06:55:21;56.92;;;19.08;;
30896;SDS011;64229;52.246;21.054;2022-12-10T06:57:46;52.55;;;18.63;;
30896;SDS011;64229;52.246;21.054;2022-12-10T07:00:12;55.83;;;17.90;;
30896;SDS011;64229;52.246;21.054;2022-12-10T07:02:38;55.00;;;19.70;;
30896;SDS011;64229;52.246;21.054;2022-12-10T07:05:03;59.92;;;19.35;;
30896;SDS011;64229;52.246;21.054;2022-12-10T07:07:29;63.25;;;19.58;;
30896;SDS011;64229;52.246;21.054;2022-12-10T07:09:54;68.30;;;22.50;;
30896;SDS011;64229;52.246;21.054;2022-12-10T07:12:19;62.35;;;19.17;;
30896;SDS011;64229;52.246;21.054;2022-12-10T07:14:45;61.97;;;19.02;;
30896;SDS011;64229;52.246;21.054;2022-12-10T07:17:10;58.38;;;19.48;;
30896;SDS011;64229;52.246;21.054;2022-12-10T07:19:35;58.22;;;19.05;;
30896;SDS011;64229;52.246;21.054;2022-12-10T07:22:00;65.60;;;20.23;;
30896;SDS011;64229;52.246;21.054;2022-12-10T07:24:26;54.95;;;18.15;;
30896;SDS011;64229;52.246;21.054;2022-12-10T07:26:51;59.10;;;19.35;;
30896;SDS011;64229;52.246;21.054;2022-12-10T07:29:18;60.40;;;19.70;;
30896;SDS011;64229;52.246;21.054;2022-12-10T07:31:45;57.72;;;18.05;;
30896;SDS011;64229;52.246;21.054;2022-12-10T07:34:12;52.92;;;18.10;;
30896;SDS011;64229;52.246;21.054;2022-12-10T07:36:38;54.65;;;18.30;;
30896;SDS011;64229;52.246;21.054;2022-12-10T07:39:04;52.80;;;18.30;;
30896;SDS011;64229;52.246;21.054;2022-12-10T07:41:31;59.65;;;19.40;;
30896;SDS011;64229;52.246;21.054;2022-12-10T07:43:57;56.53;;;18.20;;
30896;SDS011;64229;52.246;21.054;2022-12-10T07:46:24;59.95;;;19.70;;
30896;SDS011;64229;52.246;21.054;2022-12-10T07:48:52;61.40;;;19.95;;
30896;SDS011;64229;52.246;21.054;2022-12-10T07:51:18;60.22;;;18.83;;
30896;SDS011;64229;52.246;21.054;2022-12-10T07:53:45;56.63;;;17.90;;
30896;SDS011;64229;52.246;21.054;2022-12-10T07:56:11;53.13;;;17.52;;
30896;SDS011;64229;52.246;21.054;2022-12-10T07:58:37;59.70;;;18.85;;
30896;SDS011;64229;52.246;21.054;2022-12-10T08:01:08;53.58;;;18.15;;
30896;SDS011;64229;52.246;21.054;2022-12-10T08:03:35;56.00;;;18.08;;
30896;SDS011;64229;52.246;21.054;2022-12-10T08:06:08;53.85;;;18.80;;
30896;SDS011;64229;52.246;21.054;2022-12-10T08:08:41;60.47;;;19.05;;
30896;SDS011;64229;52.246;21.054;2022-12-10T08:11:08;53.13;;;18.13;;
30896;SDS011;64229;52.246;21.054;2022-12-10T08:13:34;58.88;;;18.27;;
30896;SDS011;64229;52.246;21.054;2022-12-10T08:16:01;57.45;;;18.15;;
30896;SDS011;64229;52.246;21.054;2022-12-10T08:18:35;52.05;;;17.38;;
30896;SDS011;64229;52.246;21.054;2022-12-10T08:21:07;56.95;;;17.83;;
30896;SDS011;64229;52.246;21.054;2022-12-10T08:23:34;56.95;;;18.75;;
30896;SDS011;64229;52.246;21.054;2022-12-10T08:26:03;49.35;;;16.67;;
30896;SDS011;64229;52.246;21.054;2022-12-10T08:28:33;56.17;;;18.58;;
30896;SDS011;64229;52.246;21.054;2022-12-10T08:30:59;51.35;;;17.40;;
30896;SDS011;64229;52.246;21.054;2022-12-10T08:33:24;58.50;;;20.00;;
30896;SDS011;64229;52.246;21.054;2022-12-10T08:35:50;48.65;;;17.50;;
30896;SDS011;64229;52.246;21.054;2022-12-10T08:38:15;58.55;;;18.17;;
30896;SDS011;64229;52.246;21.054;2022-12-10T08:40:41;56.17;;;17.13;;
30896;SDS011;64229;52.246;21.054;2022-12-10T08:43:07;52.78;;;18.25;;
30896;SDS011;64229;52.246;21.054;2022-12-10T08:45:32;55.55;;;19.13;;
30896;SDS011;64229;52.246;21.054;2022-12-10T08:47:58;50.10;;;17.73;;
30896;SDS011;64229;52.246;21.054;2022-12-10T08:50:25;52.55;;;17.63;;
30896;SDS011;64229;52.246;21.054;2022-12-10T08:52:50;57.92;;;17.58;;
30896;SDS011;64229;52.246;21.054;2022-12-10T08:55:15;51.60;;;16.10;;
30896;SDS011;64229;52.246;21.054;2022-12-10T08:57:41;54.25;;;17.27;;
30896;SDS011;64229;52.246;21.054;2022-12-10T09:00:06;51.78;;;17.42;;
30896;SDS011;64229;52.246;21.054;2022-12-10T09:02:32;44.67;;;15.52;;
30896;SDS011;64229;52.246;21.054;2022-12-10T09:04:58;58.83;;;17.55;;
30896;SDS011;64229;52.246;21.054;2022-12-10T09:07:23;53.67;;;18.40;;
30896;SDS011;64229;52.246;21.054;2022-12-10T09:09:48;55.22;;;16.25;;
30896;SDS011;64229;52.246;21.054;2022-12-10T09:12:14;48.90;;;16.45;;
30896;SDS011;64229;52.246;21.054;2022-12-10T09:14:39;53.78;;;17.33;;
30896;SDS011;64229;52.246;21.054;2022-12-10T09:17:06;50.20;;;16.00;;
30896;SDS011;64229;52.246;21.054;2022-12-10T09:19:32;47.65;;;16.65;;
30896;SDS011;64229;52.246;21.054;2022-12-10T09:21:58;56.03;;;16.52;;
30896;SDS011;64229;52.246;21.054;2022-12-10T09:24:23;46.13;;;16.90;;
30896;SDS011;64229;52.246;21.054;2022-12-10T09:26:48;50.67;;;17.45;;
30896;SDS011;64229;52.246;21.054;2022-12-10T09:29:14;55.38;;;17.90;;
30896;SDS011;64229;52.246;21.054;2022-12-10T09:31:39;56.88;;;18.23;;
30896;SDS011;64229;52.246;21.054;2022-12-10T09:34:04;48.38;;;17.17;;
30896;SDS011;64229;52.246;21.054;2022-12-10T09:36:30;45.20;;;16.83;;
30896;SDS011;64229;52.246;21.054;2022-12-10T09:38:55;55.38;;;16.27;;
30896;SDS011;64229;52.246;21.054;2022-12-10T09:46:49;56.42;;;18.63;;
30896;SDS011;64229;52.246;21.054;2022-12-10T09:49:20;57.97;;;17.23;;
30896;SDS011;64229;52.246;21.054;2022-12-10T09:51:48;52.00;;;19.00;;
30896;SDS011;64229;52.246;21.054;2022-12-10T09:54:18;54.83;;;18.90;;
30896;SDS011;64229;52.246;21.054;2022-12-10T09:56:48;56.10;;;18.07;;
30896;SDS011;64229;52.246;21.054;2022-12-10T09:59:20;61.58;;;19.20;;
30896;SDS011;64229;52.246;21.054;2022-12-10T10:01:51;50.17;;;17.88;;
30896;SDS011;64229;52.246;21.054;2022-12-10T10:04:28;58.92;;;18.90;;
30896;SDS011;64229;52.246;21.054;2022-12-10T10:06:53;56.78;;;20.08;;
30896;SDS011;64229;52.246;21.054;2022-12-10T10:09:19;56.85;;;18.92;;
30896;SDS011;64229;52.246;21.054;2022-12-10T10:11:45;56.50;;;19.52;;
30896;SDS011;64229;52.246;21.054;2022-12-10T10:14:12;50.83;;;18.13;;
30896;SDS011;64229;52.246;21.054;2022-12-10T10:16:49;53.08;;;17.63;;
30896;SDS011;64229;52.246;21.054;2022-12-10T10:19:21;53.92;;;18.92;;
30896;SDS011;64229;52.246;21.054;2022-12-10T10:21:51;54.45;;;17.85;;
30896;SDS011;64229;52.246;21.054;2022-12-10T10:24:24;58.42;;;17.85;;
30896;SDS011;64229;52.246;21.054;2022-12-10T10:26:59;54.08;;;18.70;;
30896;SDS011;64229;52.246;21.054;2022-12-10T10:29:36;46.92;;;16.77;;
30896;SDS011;64229;52.246;21.054;2022-12-10T10:32:12;48.63;;;17.17;;
30896;SDS011;64229;52.246;21.054;2022-12-10T10:34:44;48.80;;;17.90;;
30896;SDS011;64229;52.246;21.054;2022-12-10T10:37:15;52.38;;;18.10;;
30896;SDS011;64229;52.246;21.054;2022-12-10T10:39:48;51.72;;;17.48;;
30896;SDS011;64229;52.246;21.054;2022-12-10T10:42:21;52.30;;;17.83;;
30896;SDS011;64229;52.246;21.054;2022-12-10T10:44:52;51.35;;;17.83;;
30896;SDS011;64229;52.246;21.054;2022-12-10T10:47:25;53.17;;;18.33;;
30896;SDS011;64229;52.246;21.054;2022-12-10T10:49:53;50.25;;;17.33;;
30896;SDS011;64229;52.246;21.054;2022-12-10T10:52:19;48.63;;;17.30;;
30896;SDS011;64229;52.246;21.054;2022-12-10T10:54:44;44.15;;;17.02;;
30896;SDS011;64229;52.246;21.054;2022-12-10T10:59:46;50.83;;;17.05;;
30896;SDS011;64229;52.246;21.054;2022-12-10T11:05:07;49.03;;;17.73;;
30896;SDS011;64229;52.246;21.054;2022-12-10T11:07:40;47.85;;;17.88;;
30896;SDS011;64229;52.246;21.054;2022-12-10T11:10:27;59.13;;;21.23;;
30896;SDS011;64229;52.246;21.054;2022-12-10T11:18:20;50.67;;;17.88;;
30896;SDS011;64229;52.246;21.054;2022-12-10T11:20:55;46.15;;;16.27;;
30896;SDS011;64229;52.246;21.054;2022-12-10T11:23:26;51.40;;;17.02;;
30896;SDS011;64229;52.246;21.054;2022-12-10T11:28:50;54.67;;;16.17;;
30896;SDS011;64229;52.246;21.054;2022-12-10T11:36:50;53.10;;;16.85;;
30896;SDS011;64229;52.246;21.054;2022-12-10T11:42:33;54.92;;;17.00;;
30896;SDS011;64229;52.246;21.054;2022-12-10T11:47:46;58.13;;;17.05;;
30896;SDS011;64229;52.246;21.054;2022-12-10T11:53:47;58.97;;;16.65;;
30896;SDS011;64229;52.246;21.054;2022-12-10T12:04:28;50.05;;;16.40;;
30896;SDS011;64229;52.246;21.054;2022-12-10T12:07:18;52.42;;;16.73;;
30896;SDS011;64229;52.246;21.054;2022-12-10T12:09:50;58.20;;;17.05;;
30896;SDS011;64229;52.246;21.054;2022-12-10T12:14:56;57.70;;;18.10;;
30896;SDS011;64229;52.246;21.054;2022-12-10T12:17:32;53.50;;;16.50;;
30896;SDS011;64229;52.246;21.054;2022-12-10T12:20:14;61.30;;;19.13;;
30896;SDS011;64229;52.246;21.054;2022-12-10T12:22:46;56.53;;;17.23;;
30896;SDS011;64229;52.246;21.054;2022-12-10T12:25:20;58.85;;;18.85;;
30896;SDS011;64229;52.246;21.054;2022-12-10T12:27:53;59.15;;;18.02;;
30896;SDS011;64229;52.246;21.054;2022-12-10T12:30:36;67.22;;;20.17;;
30896;SDS011;64229;52.246;21.054;2022-12-10T12:33:11;61.00;;;18.27;;
30896;SDS011;64229;52.246;21.054;2022-12-10T12:35:46;59.88;;;18.15;;
30896;SDS011;64229;52.246;21.054;2022-12-10T12:38:19;56.35;;;17.58;;
30896;SDS011;64229;52.246;21.054;2022-12-10T12:40:53;63.10;;;19.75;;
30896;SDS011;64229;52.246;21.054;2022-12-10T12:43:26;59.10;;;17.98;;
30896;SDS011;64229;52.246;21.054;2022-12-10T12:53:52;48.17;;;16.75;;
30896;SDS011;64229;52.246;21.054;2022-12-10T13:02:14;58.22;;;18.38;;
30896;SDS011;64229;52.246;21.054;2022-12-10T13:04:47;54.33;;;17.33;;
30896;SDS011;64229;52.246;21.054;2022-12-10T13:09:46;55.03;;;17.33;;
30896;SDS011;64229;52.246;21.054;2022-12-10T13:17:35;57.37;;;16.87;;
30896;SDS011;64229;52.246;21.054;2022-12-10T13:22:59;50.30;;;17.25;;
30896;SDS011;64229;52.246;21.054;2022-12-10T13:33:52;55.80;;;17.10;;
30896;SDS011;64229;52.246;21.054;2022-12-10T13:41:27;50.22;;;18.70;;
30896;SDS011;64229;52.246;21.054;2022-12-10T13:47:31;49.08;;;17.77;;
30896;SDS011;64229;52.246;21.054;2022-12-10T13:50:17;55.85;;;19.63;;
30896;SDS011;64229;52.246;21.054;2022-12-10T13:58:13;54.35;;;19.05;;
30896;SDS011;64229;52.246;21.054;2022-12-10T14:01:02;52.33;;;18.50;;
30896;SDS011;64229;52.246;21.054;2022-12-10T14:08:46;55.17;;;19.42;;
30896;SDS011;64229;52.246;21.054;2022-12-10T14:11:19;54.55;;;18.48;;
30896;SDS011;64229;52.246;21.054;2022-12-10T14:13:54;45.80;;;17.75;;
30896;SDS011;64229;52.246;21.054;2022-12-10T14:16:23;49.85;;;17.50;;
30896;SDS011;64229;52.246;21.054;2022-12-10T14:18:56;48.08;;;18.75;;
30896;SDS011;64229;52.246;21.054;2022-12-10T14:21:25;49.25;;;18.88;;
30896;SDS011;64229;52.246;21.054;2022-12-10T14:23:51;44.88;;;18.13;;
30896;SDS011;64229;52.246;21.054;2022-12-10T14:26:19;44.78;;;19.17;;
30896;SDS011;64229;52.246;21.054;2022-12-10T14:28:48;48.72;;;19.00;;
30896;SDS011;64229;52.246;21.054;2022-12-10T14:31:29;50.53;;;18.67;;
30896;SDS011;64229;52.246;21.054;2022-12-10T14:33:59;53.60;;;19.33;;
30896;SDS011;64229;52.246;21.054;2022-12-10T14:36:29;47.97;;;19.02;;
30896;SDS011;64229;52.246;21.054;2022-12-10T14:38:58;48.45;;;18.35;;
30896;SDS011;64229;52.246;21.054;2022-12-10T14:41:24;53.15;;;18.90;;
30896;SDS011;64229;52.246;21.054;2022-12-10T14:43:53;49.50;;;18.38;;
30896;SDS011;64229;52.246;21.054;2022-12-10T14:46:27;48.05;;;19.35;;
30896;SDS011;64229;52.246;21.054;2022-12-10T14:48:54;50.20;;;19.02;;
30896;SDS011;64229;52.246;21.054;2022-12-10T14:51:21;48.40;;;17.73;;
30896;SDS011;64229;52.246;21.054;2022-12-10T14:53:50;43.90;;;18.13;;
30896;SDS011;64229;52.246;21.054;2022-12-10T14:56:28;43.72;;;19.30;;
30896;SDS011;64229;52.246;21.054;2022-12-10T15:01:40;51.92;;;19.48;;
30896;SDS011;64229;52.246;21.054;2022-12-10T15:04:14;53.40;;;20.13;;
30896;SDS011;64229;52.246;21.054;2022-12-10T15:06:42;49.55;;;19.63;;
30896;SDS011;64229;52.246;21.054;2022-12-10T15:09:16;53.45;;;21.25;;
30896;SDS011;64229;52.246;21.054;2022-12-10T15:11:45;49.38;;;20.38;;
30896;SDS011;64229;52.246;21.054;2022-12-10T15:14:17;52.53;;;21.33;;
30896;SDS011;64229;52.246;21.054;2022-12-10T15:16:45;53.95;;;20.88;;
30896;SDS011;64229;52.246;21.054;2022-12-10T15:21:45;51.35;;;21.50;;
30896;SDS011;64229;52.246;21.054;2022-12-10T15:26:42;56.05;;;22.48;;
30896;SDS011;64229;52.246;21.054;2022-12-10T15:31:47;52.38;;;21.02;;
30896;SDS011;64229;52.246;21.054;2022-12-10T15:34:14;57.25;;;22.73;;
30896;SDS011;64229;52.246;21.054;2022-12-10T15:36:49;60.40;;;22.83;;
30896;SDS011;64229;52.246;21.054;2022-12-10T15:39:33;57.10;;;23.13;;
30896;SDS011;64229;52.246;21.054;2022-12-10T15:42:07;49.83;;;21.08;;
30896;SDS011;64229;52.246;21.054;2022-12-10T15:44:37;58.10;;;22.70;;
30896;SDS011;64229;52.246;21.054;2022-12-10T15:47:17;50.88;;;21.73;;
30896;SDS011;64229;52.246;21.054;2022-12-10T15:49:44;53.30;;;21.65;;
30896;SDS011;64229;52.246;21.054;2022-12-10T15:52:14;53.20;;;22.75;;
30896;SDS011;64229;52.246;21.054;2022-12-10T15:54:45;49.90;;;21.77;;
30896;SDS011;64229;52.246;21.054;2022-12-10T15:59:38;49.50;;;21.63;;
30896;SDS011;64229;52.246;21.054;2022-12-10T16:02:03;52.58;;;22.08;;
30896;SDS011;64229;52.246;21.054;2022-12-10T16:04:52;50.42;;;20.55;;
30896;SDS011;64229;52.246;21.054;2022-12-10T16:07:18;51.30;;;22.38;;
30896;SDS011;64229;52.246;21.054;2022-12-10T16:09:44;52.67;;;21.95;;
30896;SDS011;64229;52.246;21.054;2022-12-10T16:12:13;48.63;;;21.13;;
30896;SDS011;64229;52.246;21.054;2022-12-10T16:14:49;51.50;;;20.98;;
30896;SDS011;64229;52.246;21.054;2022-12-10T16:17:20;48.00;;;19.90;;
30896;SDS011;64229;52.246;21.054;2022-12-10T16:19:45;48.42;;;21.48;;
30896;SDS011;64229;52.246;21.054;2022-12-10T16:22:10;52.00;;;22.08;;
30896;SDS011;64229;52.246;21.054;2022-12-10T16:24:36;49.67;;;21.38;;
30896;SDS011;64229;52.246;21.054;2022-12-10T16:27:04;52.33;;;22.20;;
30896;SDS011;64229;52.246;21.054;2022-12-10T16:29:36;49.53;;;21.80;;
30896;SDS011;64229;52.246;21.054;2022-12-10T16:32:01;51.80;;;21.60;;
30896;SDS011;64229;52.246;21.054;2022-12-10T16:34:26;51.75;;;22.33;;